KMLU

Monroe Regional Airport

Monroe, Louisiana, USA
KMLU 161727Z 1618/1718 VRB04KT P6SM SCT060 FM162000 27006KT P6SM VCTS SCT060CB FM170000 22004KT P6SM SCT060 SCT250 FM170600 VRB03KT P6SM FEW060 FM171000 24003KT P6SM VCSH BKN040 FM171100 27008KT P6SM BKN250
Issued Valid From Valid To
Jul-16 @ 17:27 UTC
(3 hours ago)
Jul-16 @ 18:00 UTC
(2 hours ago)
Jul-17 @ 18:00 UTC
(in 22 hours)
Expired Click to View Jul-16 @ 18:00 to Jul-16 @ 20:00
KMLU 161727Z 1618/1718 VRB04KT P6SM SCT060
Wind Visibility Clouds
Variable at 4 knots Greater than 6 miles
  • Scattered at 6,000' AGL
From Jul-16 @ 20:00 to Jul-17 @ 00:00
FM162000 27006KT P6SM VCTS SCT060CB
Wind Visibility Clouds Conditions
270° at 6 knots Greater than 6 miles
  • Scattered at 6,000' AGL
  • Area Thunderstorm
From Jul-17 @ 00:00 to Jul-17 @ 06:00
FM170000 22004KT P6SM SCT060 SCT250
Wind Visibility Clouds
220° at 4 knots Greater than 6 miles
  • Scattered at 6,000' AGL
  • Scattered at 25,000' AGL
From Jul-17 @ 06:00 to Jul-17 @ 10:00
FM170600 VRB03KT P6SM FEW060
Wind Visibility Clouds
Variable at 3 knots Greater than 6 miles
  • Few at 6,000' AGL
From Jul-17 @ 10:00 to Jul-17 @ 11:00
FM171000 24003KT P6SM VCSH BKN040
Wind Visibility Clouds
240° at 3 knots Greater than 6 miles
  • Broken at 4,000' AGL
From Jul-17 @ 11:00 to Jul-17 @ 18:00
FM171100 27008KT P6SM BKN250
Wind Visibility Clouds
270° at 8 knots Greater than 6 miles
  • Broken at 25,000' AGL
KMLU 161727Z 1618/1718 VRB04KT P6SM SCT060 FM162000 27006KT P6SM VCTS SCT060CB FM170000 22004KT P6SM SCT060 SCT250 FM170600 VRB03KT P6SM FEW060 FM171000 24003KT P6SM VCSH BKN040 FM171100 27008KT P6SM BKN250
Issued Jul-16 @ 17:27 UTC
(3 hours ago)
Valid From Jul-16 @ 18:00 UTC
(2 hours ago)
Valid To Jul-17 @ 18:00 UTC
(in 22 hours)
Jul-16 @ 18:00 - Jul-16 @ 20:00
Wind Visibility
Variable at 4 knots Greater than 6 miles
Clouds
  • Scattered at 6,000' AGL
From Jul-16 @ 20:00 - Jul-17 @ 00:00
Wind Visibility
270° at 6 knots Greater than 6 miles
Clouds
  • Scattered at 6,000' AGL
Conditions
  • Area Thunderstorm
From Jul-17 @ 00:00 - Jul-17 @ 06:00
Wind Visibility
220° at 4 knots Greater than 6 miles
Clouds
  • Scattered at 6,000' AGL
  • Scattered at 25,000' AGL
From Jul-17 @ 06:00 - Jul-17 @ 10:00
Wind Visibility
Variable at 3 knots Greater than 6 miles
Clouds
  • Few at 6,000' AGL
From Jul-17 @ 10:00 - Jul-17 @ 11:00
Wind Visibility
240° at 3 knots Greater than 6 miles
Clouds
  • Broken at 4,000' AGL
From Jul-17 @ 11:00 - Jul-17 @ 18:00
Wind Visibility
270° at 8 knots Greater than 6 miles
Clouds
  • Broken at 25,000' AGL